Latest Coastal Weather Observations for Strahan

IDT60701

Issued at 11:45 am EST Friday 1 August 2014 (issued every 10 minutes, with the page automatically refreshed every 10 minutes)

About coastal observations | Map of coastal stations | Coastal observations for TAS | Marine services | Other Formats
Station Details ID: 097072 Name: STRAHAN AERODROME Lat: -42.16 Lon: 145.29 Height: 21.0 m
Data from the previous 72 hours. | See also: Recent months at Strahan
Date/Time
EST
Temp

°C
Wind Pressure Rain
since 9am
mm
Weather Cloud Vis
km
Sea
Height
m
Swell
Dir
 
Speed
knots
Gust
knots
hPa Trend Height
m
Period
s
Dir
01/11:32am 2.8 S 21 32 999.3 - 7.8 - Partly cloudy 4 - - - -
01/11:31am 2.9 S 21 32 999.3 - 7.8 - Partly cloudy 4 - - - -
01/11:30am 2.9 S 23 32 999.2 - 7.8 - Partly cloudy 3 - - - -
01/11:20am 2.8 SSW 15 25 998.6 - 6.6 - Partly cloudy 5 - - - -
01/11:13am 3.4 SSW 14 19 998.2 - 5.8 - Partly cloudy 6 - - - -
01/11:00am 3.6 SW 21 31 997.4 - 5.0 - Partly cloudy 3 - - - -
01/10:50am 3.8 SW 23 32 997.4 - 3.6 - Partly cloudy 3 - - - -
01/10:40am 3.9 SW 24 35 997.3 - 2.4 - Partly cloudy 5 - - - -
01/10:30am 4.3 SW 22 34 997.0 - 2.0 - Partly cloudy 10 - - - -
01/10:00am 5.1 SW 23 33 996.2 - 2.0 - Partly cloudy 10 - - - -
01/09:30am 5.2 SW 20 30 995.6 - 1.8 - Partly cloudy 7 - - - -
01/09:01am 5.0 WSW 17 34 995.0 - 0.0 - Partly cloudy 6 - - - -
01/09:00am 5.5 WSW 16 25 995.0 - 22.2 Rain Cloudy 6 - - - -
01/08:59am 5.7 WSW 15 25 995.0 - 22.2 - Partly cloudy 6 - - - -
01/08:55am 5.6 WSW 15 23 994.7 - 22.2 - Partly cloudy 5 - - - -
01/08:39am 6.3 WSW 16 27 994.5 - 22.0 - Partly cloudy 10 - - - -
01/08:30am 6.0 WSW 15 23 994.3 - 22.0 - Partly cloudy 10 - - - -
01/08:00am 5.7 W 16 28 993.7 - 22.0 - Partly cloudy 7 - - - -
01/07:53am 6.1 WSW 16 28 993.7 - 21.8 - Partly cloudy 10 - - - -
01/07:30am 6.1 WSW 14 21 993.3 - 21.8 - Partly cloudy 10 - - - -
01/07:00am 5.9 WSW 16 22 992.7 - 21.8 - Partly cloudy 10 - - - -
01/06:30am 5.8 W 14 23 991.6 - 21.8 - Partly cloudy 10 - - - -
01/06:15am 5.9 W 15 26 991.3 - 21.6 - Partly cloudy 10 - - - -
01/06:00am 5.0 WNW 10 16 991.0 - 21.6 Recent precip. Cloudy 10 - - - -
01/05:49am 4.3 W 8 12 991.0 - 21.6 - Partly cloudy 10 - - - -
01/05:30am 3.5 WSW 7 15 991.5 - 21.4 - Partly cloudy 5 - - - -
01/05:22am 3.0 WSW 17 27 991.4 - 21.2 - Partly cloudy 4 - - - -
01/05:20am 3.4 WSW 19 27 991.5 - 21.0 - Partly cloudy 5 - - - -
01/05:00am 6.7 WNW 16 23 990.9 - 20.0 - Partly cloudy 10 - - - -
01/04:30am 6.6 WNW 17 25 990.5 - 20.0 - Partly cloudy 10 - - - -
01/04:00am 6.0 NW 17 21 990.4 - 20.0 - Partly cloudy 10 - - - -
01/03:30am 5.7 NW 16 21 990.3 - 20.0 - Partly cloudy 10 - - - -
01/03:00am 5.3 NW 21 29 990.5 - 20.0 - Cloudy 10 - - - -
01/02:30am 5.3 NW 23 30 990.5 - 20.0 - Partly cloudy 10 - - - -
01/02:04am 6.3 NW 29 41 989.9 - 20.0 - Partly cloudy 10 - - - -
01/02:00am 6.8 NW 29 38 989.9 - 20.0 - Partly cloudy 10 - - - -
01/01:30am 7.8 WNW 24 34 989.2 - 20.0 - - 10 - - - -
01/01:00am 7.4 WNW 21 36 988.8 - 20.0 - Partly cloudy 10 - - - -
01/12:30am 7.4 W 24 34 988.9 - 20.0 - Partly cloudy 10 - - - -
01/12:02am 7.1 W 25 36 988.9 - 20.0 - Partly cloudy 10 - - - -
01/12:00am 7.0 W 25 33 988.9 - 20.0 Recent precip. Mostly cloudy 10 - - - -
 
Date/Time
EST
Temp

°C
Wind Pressure Rain
since 9am
mm
Weather Cloud Vis
km
Sea
Height
m
Swell
Dir
 
Speed
knots
Gust
knots
hPa Trend Height
m
Period
s
Dir
31/11:30pm 6.0 W 22 32 988.5 - 20.0 - Partly cloudy 9 - - - -
31/11:27pm 5.8 W 22 33 988.5 - 20.0 - Partly cloudy 9 - - - -
31/11:11pm 5.1 W 27 42 988.7 - 19.8 - Partly cloudy 5 - - - -
31/11:00pm 6.7 W 24 37 988.4 - 19.6 - Partly cloudy 10 - - - -
31/10:30pm 5.0 W 24 36 988.2 - 19.6 - Partly cloudy 8 - - - -
31/10:03pm 5.0 W 29 39 987.9 - 19.4 - Partly cloudy 9 - - - -
31/10:00pm 5.2 W 30 39 987.7 - 19.4 - Partly cloudy 10 - - - -
31/09:36pm 5.2 WNW 20 30 987.1 - 19.4 - Partly cloudy 9 - - - -
31/09:35pm 5.2 WNW 21 30 987.1 - 19.4 - Partly cloudy 8 - - - -
31/09:30pm 5.6 W 31 43 987.0 - 19.4 - Partly cloudy 8 - - - -
31/09:27pm 5.5 W 30 43 986.8 - 19.4 - Partly cloudy 8 - - - -
31/09:12pm 4.8 W 25 37 986.9 - 19.4 - Partly cloudy 5 - - - -
31/09:00pm 6.0 NW 28 49 985.9 - 19.0 Rain Cloudy 4 - - - -
31/08:57pm 6.6 WNW 28 49 985.8 - 18.6 - Partly cloudy 5 - - - -
31/08:38pm 7.3 NW 27 37 985.8 - 18.4 - Partly cloudy 9 - - - -
31/08:30pm 7.5 WNW 28 36 985.7 - 18.4 - Partly cloudy 10 - - - -
31/08:00pm 7.4 WNW 31 41 985.5 - 18.4 - Partly cloudy 10 - - - -
31/07:41pm 6.7 WNW 30 40 985.2 - 18.4 - Partly cloudy 10 - - - -
31/07:30pm 5.8 WNW 27 41 984.8 - 18.4 - Partly cloudy 5 - - - -
31/07:18pm 5.6 WNW 32 47 985.3 - 18.0 - Partly cloudy 5 - - - -
31/07:00pm 7.1 WNW 33 48 984.5 - 17.8 - Partly cloudy 8 - - - -
31/06:30pm 8.3 NW 34 46 983.9 - 17.8 - Partly cloudy 8 - - - -
31/06:16pm 8.2 WNW 38 48 983.7 - 17.8 - Partly cloudy 8 - - - -
31/06:15pm 8.1 WNW 41 48 983.6 - 17.8 - Partly cloudy 8 - - - -
31/06:00pm 6.7 WNW 30 42 983.9 - 17.8 - Cloudy 7 - - - -
31/05:41pm 7.5 WNW 33 45 983.3 - 17.8 - Partly cloudy 10 - - - -
31/05:30pm 7.0 WNW 39 64 983.5 - 17.8 - Partly cloudy 5 - - - -
31/05:27pm 7.0 WNW 41 64 983.5 - 17.8 - Partly cloudy 5 - - - -
31/05:22pm 7.7 WNW 43 64 983.0 - 17.8 - Partly cloudy 8 - - - -
31/05:21pm 8.4 NW 31 64 983.0 - 17.8 - Partly cloudy 9 - - - -
31/05:00pm 8.5 NW 31 44 982.6 - 17.8 - Partly cloudy 9 - - - -
31/04:30pm 8.1 NW 31 44 982.8 - 17.6 - Partly cloudy 10 - - - -
31/04:00pm 7.3 NW 37 50 982.4 - 17.6 - Partly cloudy 7 - - - -
31/03:40pm 7.9 NW 34 44 982.0 - 17.6 - Partly cloudy 7 - - - -
31/03:37pm 7.8 NW 37 44 981.8 - 17.6 - Partly cloudy 7 - - - -
31/03:34pm 7.5 NNW 24 34 981.9 - 17.6 - Partly cloudy 7 - - - -
31/03:30pm 7.2 NW 25 38 982.0 - 17.6 - Partly cloudy 8 - - - -
31/03:16pm 6.5 NW 27 47 981.8 - 17.6 - Partly cloudy 5 - - - -
31/03:11pm 6.4 NW 25 36 981.9 - 17.2 - Partly cloudy 6 - - - -
31/03:03pm 6.4 WNW 25 29 982.1 - 17.2 - Partly cloudy 4 - - - -
31/03:01pm 6.2 NNW 15 27 981.9 - 17.0 - Partly cloudy 4 - - - -
31/03:00pm 6.1 NNW 14 22 981.7 - 17.0 Rain Cloudy 4 - - - -
31/02:40pm 5.8 N 18 25 982.0 - 16.0 - Partly cloudy 5 - - - -
31/02:33pm 5.8 N 15 25 982.2 - 15.6 - Partly cloudy 8 - - - -
31/02:30pm 5.7 N 13 21 982.2 - 15.4 - Partly cloudy 9 - - - -
31/02:00pm 5.5 N 11 16 982.7 - 14.8 - Partly cloudy 10 - - - -
31/01:30pm 4.8 NNE 11 19 983.8 - 14.8 - Partly cloudy 10 - - - -
31/01:24pm 4.8 NNE 11 17 983.7 - 14.8 - Partly cloudy 10 - - - -
31/01:14pm 4.7 NE 12 19 982.9 - 14.8 - Partly cloudy 5 - - - -
31/01:00pm 4.8 NNE 7 10 983.6 - 14.4 - Partly cloudy 10 - - - -
31/12:33pm 4.6 E 7 9 983.7 - 13.8 - Partly cloudy 9 - - - -
31/12:30pm 4.5 E 7 9 984.0 - 13.6 - Partly cloudy 8 - - - -
31/12:07pm 4.6 SSE 7 9 985.4 - 12.8 - Partly cloudy 5 - - - -
31/12:00pm 4.6 S 9 13 985.4 - 12.4 Rain Cloudy 8 - - - -
31/11:37am 5.3 SSW 10 15 984.5 - 12.0 - Partly cloudy 8 - - - -
31/11:30am 5.3 SSW 12 15 984.6 - 11.8 - Partly cloudy 6 - - - -
31/11:04am 5.6 S 9 13 985.1 - 9.4 - Partly cloudy 5 - - - -
31/11:00am 5.6 S 9 13 984.7 - 9.2 - Partly cloudy 9 - - - -
31/10:50am 5.8 S 9 14 984.2 - 9.0 - Partly cloudy 8 - - - -
31/10:37am 5.9 SSW 14 21 984.2 - 8.8 - Partly cloudy 5 - - - -
31/10:30am 5.8 SSW 16 21 984.2 - 8.4 - Partly cloudy 3 - - - -
31/10:17am 6.3 SW 19 27 984.7 - 7.2 - Partly cloudy 3 - - - -
31/10:00am 6.6 SW 7 11 984.7 - 3.8 - Partly cloudy 3 - - - -
31/09:36am 6.9 ESE 1 5 984.6 - 0.4 - Partly cloudy 3 - - - -
31/09:32am 6.9 CALM 0 0 984.7 - 0.2 - Partly cloudy 5 - - - -
31/09:30am 6.8 CALM 0 0 984.8 - 0.2 - Partly cloudy 8 - - - -
31/09:03am 6.6 NNE 4 6 985.7 - 0.0 - Partly cloudy 7 - - - -
31/09:00am 6.6 NNE 5 6 985.8 - 41.4 Rain Cloudy 6 - - - -
31/08:34am 6.6 NE 3 5 986.5 - 40.2 - Partly cloudy 5 - - - -
31/08:30am 6.6 NE 3 5 986.6 - 40.0 - Partly cloudy 4 - - - -
31/08:15am 6.6 NNE 6 8 987.0 - 39.2 - Partly cloudy 6 - - - -
31/08:00am 6.7 NNE 6 8 987.1 - 38.8 - Partly cloudy 5 - - - -
31/07:30am 6.8 NNW 5 7 988.3 - 37.6 - Partly cloudy 5 - - - -
31/07:00am 7.0 NW 9 14 989.1 - 37.2 - Partly cloudy 4 - - - -
31/06:30am 6.9 NNW 7 10 989.9 - 35.8 - Partly cloudy 5 - - - -
31/06:29am 6.9 NNW 7 9 989.8 - 35.8 - Partly cloudy 5 - - - -
31/06:00am 6.9 N 6 8 989.5 - 35.6 Recent precip. Cloudy 8 - - - -
31/05:37am 6.9 N 5 6 990.0 - 35.6 - Partly cloudy 7 - - - -
31/05:30am 6.9 NNW 5 6 990.1 - 35.6 - Partly cloudy 6 - - - -
31/05:19am 7.0 NW 7 13 990.5 - 35.4 - Partly cloudy 5 - - - -
31/05:00am 7.0 W 12 16 991.2 - 34.2 - Partly cloudy 3 - - - -
31/04:30am 7.0 NNW 3 6 990.9 - 32.6 - Cloudy 5 - - - -
31/04:00am 7.0 WSW 7 11 991.5 - 32.2 - Partly cloudy 5 - - - -
31/03:57am 7.0 WSW 8 11 991.6 - 32.2 - Partly cloudy 5 - - - -
31/03:30am 7.0 WSW 15 24 991.5 - 31.8 - Partly cloudy 4 - - - -
31/03:27am 7.0 WSW 17 27 991.8 - 31.8 - Partly cloudy 4 - - - -
31/03:23am 6.9 WSW 19 27 991.6 - 31.6 - Partly cloudy 3 - - - -
31/03:09am 7.4 SW 25 35 991.4 - 29.4 - Partly cloudy 1 - - - -
31/03:04am 7.9 WSW 25 35 990.2 - 27.6 - Partly cloudy 2 - - - -
31/03:02am 8.3 WSW 24 33 990.3 - 26.8 - Partly cloudy 2 - - - -
31/03:01am 8.8 WSW 23 33 990.4 - 26.8 - Partly cloudy 2 - - - -
31/03:00am 9.4 W 21 29 990.3 - 26.2 Rain Cloudy 4 - - - -
31/02:49am 9.0 WNW 29 39 990.2 - 25.4 - Partly cloudy 1 - - - -
31/02:48am 9.0 WNW 30 39 990.3 - 25.4 - Partly cloudy 1 - - - -
31/02:43am 9.7 NW 18 31 990.5 - 24.4 - Partly cloudy 2 - - - -
31/02:32am 10.2 WNW 17 26 990.9 - 21.6 - Partly cloudy 2 - - - -
31/02:30am 10.2 WNW 18 26 991.0 - 20.8 - Partly cloudy 2 - - - -
31/02:22am 10.4 WNW 16 21 990.6 - 18.6 - Partly cloudy 5 - - - -
31/02:00am 10.6 WNW 21 31 991.4 - 18.6 - Partly cloudy 6 - - - -
31/01:50am 10.5 WNW 25 36 991.7 - 18.6 - Partly cloudy 7 - - - -
31/01:48am 10.4 WNW 26 36 991.8 - 18.6 - Partly cloudy 7 - - - -
31/01:30am 10.0 WNW 25 36 992.1 - 18.6 - Partly cloudy 4 - - - -
31/01:16am 9.8 WNW 26 37 992.2 - 17.8 - Partly cloudy 1 - - - -
31/01:00am 9.5 WNW 33 48 992.3 - 14.8 - Partly cloudy 3 - - - -
31/12:55am 10.3 WNW 33 48 992.2 - 14.0 - Partly cloudy 5 - - - -
31/12:54am 10.8 WNW 31 44 992.4 - 14.0 - Partly cloudy 6 - - - -
31/12:30am 12.2 NNW 30 44 991.4 - 14.0 - Partly cloudy 6 - - - -
31/12:28am 12.2 NNW 30 44 991.4 - 14.0 - Partly cloudy 6 - - - -
31/12:00am 11.6 NNW 29 40 991.6 - 14.0 Rain Cloudy 4 - - - -
 
Date/Time
EST
Temp

°C
Wind Pressure Rain
since 9am
mm
Weather Cloud Vis
km
Sea
Height
m
Swell
Dir
 
Speed
knots
Gust
knots
hPa Trend Height
m
Period
s
Dir
30/11:40pm 11.9 NNW 27 37 992.4 - 13.8 - Partly cloudy 5 - - - -
30/11:30pm 12.1 NNW 29 41 992.6 - 13.8 - Partly cloudy 6 - - - -
30/11:27pm 12.0 NNW 29 39 992.6 - 13.8 - Partly cloudy 6 - - - -
30/11:24pm 12.0 NNW 30 39 992.7 - 13.8 - Partly cloudy 6 - - - -
30/11:00pm 11.6 NNW 29 41 993.0 - 13.8 - Partly cloudy 5 - - - -
30/10:50pm 11.4 NNW 27 37 993.2 - 13.8 - Partly cloudy 5 - - - -
30/10:31pm 11.2 NW 31 41 993.7 - 13.8 - Partly cloudy 6 - - - -
30/10:30pm 11.2 NW 31 41 993.6 - 13.8 - Partly cloudy 6 - - - -
30/10:00pm 10.9 NNW 29 42 993.8 - 12.4 - Partly cloudy 3 - - - -
30/09:51pm 11.5 NNW 29 40 993.8 - 12.0 - Partly cloudy 5 - - - -
30/09:49pm 11.9 NNW 28 40 993.7 - 12.0 - Partly cloudy 6 - - - -
30/09:35pm 12.1 NNW 25 35 994.1 - 12.0 - Partly cloudy 5 - - - -
30/09:34pm 12.1 NNW 25 35 994.2 - 12.0 - Partly cloudy 6 - - - -
30/09:30pm 12.2 NNW 25 35 994.2 - 12.0 - Partly cloudy 6 - - - -
30/09:19pm 12.0 NNW 25 35 994.3 - 12.0 - Partly cloudy 5 - - - -
30/09:14pm 12.1 NNW 26 35 994.5 - 12.0 - Partly cloudy 5 - - - -
30/09:00pm 12.2 NW 28 39 994.6 - 12.0 - Cloudy 6 - - - -
30/08:42pm 12.1 NW 29 40 994.9 - 12.0 - Partly cloudy 6 - - - -
30/08:30pm 11.8 NNW 30 41 994.6 - 12.0 - Partly cloudy 5 - - - -
30/08:19pm 11.8 NNW 33 47 994.7 - 12.0 - Partly cloudy 5 - - - -
30/08:00pm 12.5 NNW 32 50 994.7 - 12.0 - Partly cloudy 6 - - - -
30/07:30pm 12.4 NW 31 43 995.1 - 11.8 - Partly cloudy 6 - - - -
30/07:14pm 12.0 NNW 30 43 994.9 - 11.8 - Partly cloudy 6 - - - -
30/07:00pm 12.0 NNW 32 50 994.7 - 11.8 - Partly cloudy 5 - - - -
30/06:58pm 11.9 NNW 32 50 994.6 - 11.8 - Partly cloudy 5 - - - -
30/06:46pm 11.7 NNW 27 37 994.8 - 11.8 - Partly cloudy 5 - - - -
30/06:44pm 11.7 NNW 27 37 994.7 - 11.8 - Partly cloudy 6 - - - -
30/06:30pm 11.5 NNW 25 35 994.8 - 11.8 - Partly cloudy 5 - - - -
30/06:07pm 11.2 NNW 24 34 995.4 - 11.8 - Partly cloudy 4 - - - -
30/06:00pm 11.7 NW 24 33 995.6 - 11.6 Recent precip. Cloudy 5 - - - -
30/05:31pm 12.0 NW 25 35 996.1 - 11.6 - Partly cloudy 6 - - - -
30/05:30pm 12.0 NW 26 35 996.1 - 11.6 - Partly cloudy 6 - - - -
30/05:21pm 11.7 NW 25 36 996.1 - 11.6 - Partly cloudy 6 - - - -
30/05:01pm 11.7 NW 25 41 996.3 - 11.6 - Partly cloudy 5 - - - -
30/05:00pm 11.8 NW 24 41 996.3 - 11.4 - Partly cloudy 6 - - - -
30/04:54pm 11.9 NW 25 37 996.4 - 11.2 - Partly cloudy 6 - - - -
30/04:41pm 11.5 NW 23 34 996.6 - 11.2 - Partly cloudy 5 - - - -
30/04:30pm 11.8 NW 30 41 996.6 - 11.2 - Partly cloudy 8 - - - -
30/04:00pm 11.5 NW 29 40 996.4 - 11.2 - Partly cloudy 6 - - - -
30/03:30pm 10.9 NW 27 37 996.1 - 11.0 - Partly cloudy 2 - - - -
30/03:05pm 11.2 NW 22 32 996.4 - 10.4 - Partly cloudy 5 - - - -
30/03:00pm 11.0 NW 23 32 996.4 - 10.4 Recent precip. Cloudy 5 - - - -
30/02:59pm 10.9 NW 23 32 996.4 - 10.4 - Partly cloudy 5 - - - -
30/02:37pm 10.6 WNW 26 36 996.5 - 9.8 - Partly cloudy 0.7 - - - -
30/02:34pm 10.8 NW 25 34 996.5 - 8.4 - Partly cloudy 0.7 - - - -
30/02:30pm 10.9 NW 26 36 996.6 - 6.8 - Partly cloudy 0.9 - - - -
30/02:21pm 11.6 NNW 24 36 996.0 - 2.6 - Partly cloudy 5 - - - -
30/02:19pm 11.8 NNW 24 32 996.1 - 2.6 - Partly cloudy 5 - - - -
30/02:00pm 12.0 NW 25 35 996.7 - 2.6 - Partly cloudy 6 - - - -
30/01:35pm 12.1 NW 25 36 996.8 - 2.6 - Partly cloudy 6 - - - -
30/01:30pm 12.1 NW 24 33 996.9 - 2.6 - Partly cloudy 6 - - - -
30/01:12pm 11.9 NW 25 35 997.3 - 2.6 - Partly cloudy 6 - - - -
30/01:00pm 11.9 NW 26 35 997.6 - 2.6 - Partly cloudy 6 - - - -
30/12:30pm 11.9 NW 31 43 997.8 - 2.6 - Partly cloudy 6 - - - -
30/12:12pm 11.7 NW 30 40 997.9 - 2.6 - Partly cloudy 7 - - - -
30/12:00pm 11.4 NW 29 43 998.1 - 2.6 Recent precip. Cloudy 5 - - - -
30/11:30am 10.8 NW 29 40 998.3 - 2.4 - Partly cloudy 4 - - - -
30/11:00am 10.7 NW 25 35 999.0 - 1.8 - Partly cloudy 4 - - - -
30/10:54am 11.0 NW 24 34 999.0 - 1.6 - Partly cloudy 5 - - - -
30/10:49am 11.0 NW 24 33 999.1 - 1.4 - Partly cloudy 6 - - - -
30/10:30am 10.8 NW 24 37 999.4 - 1.4 - Partly cloudy 6 - - - -
30/10:02am 10.9 NW 24 34 999.4 - 0.8 - Partly cloudy 4 - - - -
30/10:00am 10.8 NW 25 34 999.6 - 0.8 - Partly cloudy 4 - - - -
30/09:49am 10.4 NW 25 35 999.5 - 0.6 - Partly cloudy 3 - - - -
30/09:38am 11.2 NW 28 36 999.4 - 0.0 - Partly cloudy 5 - - - -
30/09:30am 11.4 NW 25 36 999.5 - 0.0 - Partly cloudy 6 - - - -
30/09:05am 10.8 NW 24 34 999.5 - 0.0 - Partly cloudy 6 - - - -
30/09:04am 10.8 NW 25 34 999.5 - 0.0 - Partly cloudy 6 - - - -
30/09:01am 10.7 NW 24 34 999.4 - 0.0 - Partly cloudy 6 - - - -
30/09:00am 10.8 NW 25 34 999.5 - 7.2 Recent precip. Cloudy 6 - - - -
30/08:31am 9.5 WNW 26 37 999.8 - 7.2 - Partly cloudy 3 - - - -
30/08:30am 9.8 WNW 26 35 999.9 - 7.2 - Partly cloudy 3 - - - -
30/08:15am 10.5 WNW 25 36 999.7 - 6.6 - Partly cloudy 5 - - - -
30/08:05am 10.8 WNW 28 41 999.6 - 6.6 - Partly cloudy 7 - - - -
30/08:00am 10.6 WNW 29 41 999.6 - 6.6 - Partly cloudy 7 - - - -
30/07:49am 10.1 NW 30 40 999.2 - 6.6 - Partly cloudy 4 - - - -
30/07:46am 10.0 NW 31 40 999.2 - 6.6 - Partly cloudy 4 - - - -
30/07:30am 10.5 NW 21 31 999.2 - 6.4 - Partly cloudy 5 - - - -
30/07:00am 10.1 NW 24 35 999.3 - 6.4 - Partly cloudy 5 - - - -
30/06:58am 10.5 NW 24 35 999.3 - 6.2 - Partly cloudy 5 - - - -
30/06:37am 10.5 NW 26 36 999.0 - 6.2 - Partly cloudy 7 - - - -
30/06:30am 10.4 NW 28 36 998.9 - 6.2 - Partly cloudy 7 - - - -
30/06:06am 10.0 NW 23 35 999.0 - 6.2 - Partly cloudy 5 - - - -
30/06:03am 10.6 NW 23 35 998.9 - 6.2 - Partly cloudy 7 - - - -
30/06:00am 10.6 NW 23 32 998.9 - 6.2 Recent precip. Cloudy 7 - - - -
30/05:43am 10.1 NW 22 35 999.0 - 6.2 - Partly cloudy 6 - - - -
30/05:30am 9.5 WNW 19 30 999.0 - 6.2 - Partly cloudy 5 - - - -
30/05:04am 10.5 WNW 17 27 999.4 - 5.8 - Partly cloudy 5 - - - -
30/05:00am 10.5 WNW 17 24 999.6 - 5.8 - Partly cloudy 5 - - - -
30/04:57am 10.5 WNW 16 24 999.6 - 5.8 - Partly cloudy 5 - - - -
30/04:30am 10.0 W 20 30 999.9 - 5.8 - Partly cloudy 7 - - - -
30/04:00am 10.1 W 22 31 1000.0 - 5.8 - Partly cloudy 6 - - - -
30/03:54am 9.9 W 23 33 999.9 - 5.8 - Partly cloudy 7 - - - -
30/03:30am 10.0 W 24 32 1000.0 - 5.8 - Partly cloudy 6 - - - -
30/03:07am 10.1 W 27 38 1000.1 - 5.8 - Partly cloudy 7 - - - -
30/03:04am 10.1 W 28 38 1000.1 - 5.8 - Partly cloudy 6 - - - -
30/03:00am 10.1 W 27 36 1000.2 - 5.8 - Cloudy 6 - - - -
30/02:54am 10.2 W 24 34 1000.1 - 5.8 - Partly cloudy 5 - - - -
30/02:30am 10.4 W 29 39 999.8 - 5.8 - Partly cloudy 6 - - - -
30/02:00am 10.6 W 28 41 999.5 - 5.8 - Partly cloudy 6 - - - -
30/01:30am 10.6 W 31 42 998.7 - 5.8 - Partly cloudy 6 - - - -
30/01:00am 10.5 WNW 30 42 998.2 - 5.8 - Partly cloudy 7 - - - -
30/12:30am 10.4 WNW 30 42 997.5 - 5.8 - Partly cloudy 6 - - - -
30/12:28am 10.2 WNW 29 39 997.5 - 5.8 - Partly cloudy 6 - - - -
30/12:00am 9.8 WNW 29 43 997.2 - 5.8 Rain Cloudy 4 - - - -
 
Date/Time
EST
Temp

°C
Wind Pressure Rain
since 9am
mm
Weather Cloud Vis
km
Sea
Height
m
Swell
Dir
 
Speed
knots
Gust
knots
hPa Trend Height
m
Period
s
Dir
29/11:54pm 9.9 WNW 28 42 997.0 - 5.6 - Partly cloudy 5 - - - -
29/11:31pm 9.8 WNW 30 40 996.3 - 5.6 - Partly cloudy 6 - - - -
29/11:30pm 9.8 WNW 30 38 996.2 - 5.6 - Partly cloudy 6 - - - -
29/11:02pm 9.8 W 32 45 996.0 - 5.0 - Partly cloudy 5 - - - -
29/11:00pm 10.3 W 32 45 995.9 - 5.0 - Partly cloudy 6 - - - -
29/10:30pm 11.1 WNW 27 43 995.7 - 5.0 - Partly cloudy 6 - - - -
29/10:00pm 10.8 WNW 30 49 995.7 - 5.0 - Partly cloudy 6 - - - -
29/09:30pm 10.1 WNW 30 43 995.1 - 5.0 - Partly cloudy 7 - - - -
29/09:00pm 10.1 WNW 30 41 995.0 - 5.0 Recent precip. Partly cloudy 7 - - - -
29/08:39pm 9.5 WNW 29 40 994.5 - 5.0 - Partly cloudy 7 - - - -
29/08:30pm 9.1 WNW 28 43 994.1 - 5.0 - Partly cloudy 6 - - - -
29/08:20pm 7.9 WNW 32 42 994.0 - 4.8 - Partly cloudy 2 - - - -
29/08:19pm 7.8 WNW 33 42 994.0 - 4.8 - Partly cloudy 2 - - - -
29/08:15pm 9.7 WNW 45 62 993.6 - 4.0 - Partly cloudy 5 - - - -
29/08:14pm 11.1 WNW 27 47 993.5 - 4.0 - Partly cloudy 5 - - - -
29/08:11pm 11.5 WNW 26 37 993.4 - 4.0 - Partly cloudy 5 - - - -
29/08:01pm 11.5 WNW 31 41 993.6 - 4.0 - Partly cloudy 6 - - - -
29/08:00pm 11.6 WNW 32 46 993.6 - 4.0 - Partly cloudy 6 - - - -
29/07:49pm 11.6 WNW 29 40 993.4 - 4.0 - Partly cloudy 5 - - - -
29/07:30pm 11.6 WNW 30 43 993.5 - 4.0 - Partly cloudy 6 - - - -
29/07:00pm 11.5 WNW 32 45 992.8 - 4.0 - Partly cloudy 7 - - - -
29/06:30pm 11.6 WNW 33 47 992.1 - 4.0 - Partly cloudy 7 - - - -
29/06:01pm 10.6 WNW 30 41 991.3 - 4.0 - Partly cloudy 7 - - - -
29/06:00pm 10.5 WNW 30 39 991.4 - 4.0 Recent precip. Partly cloudy 7 - - - -
29/05:53pm 10.1 WNW 30 40 991.1 - 4.0 - Partly cloudy 7 - - - -
29/05:39pm 9.0 WNW 26 39 990.7 - 4.0 - Partly cloudy 3 - - - -
29/05:30pm 9.0 WNW 37 49 991.6 - 3.4 - Partly cloudy 2 - - - -
29/05:26pm 11.4 WNW 37 49 991.2 - 2.8 - Partly cloudy 5 - - - -
29/05:12pm 11.9 WNW 38 52 990.0 - 2.8 - Partly cloudy 6 - - - -
29/05:00pm 11.7 WNW 37 51 989.7 - 2.8 - Partly cloudy 5 - - - -
29/04:47pm 12.3 WNW 37 50 989.7 - 2.8 - Partly cloudy 5 - - - -
29/04:39pm 12.1 WNW 37 50 989.7 - 2.8 - Partly cloudy 6 - - - -
29/04:30pm 11.7 NW 34 51 989.8 - 2.8 - Partly cloudy 6 - - - -
29/04:00pm 11.8 NW 35 51 989.3 - 2.8 - Partly cloudy 4 - - - -
29/03:59pm 12.0 NW 35 51 989.2 - 2.6 - Partly cloudy 5 - - - -
29/03:53pm 12.5 NW 36 49 989.3 - 2.6 - Partly cloudy 6 - - - -
29/03:30pm 12.3 NW 33 44 989.0 - 2.6 - Partly cloudy 6 - - - -
29/03:00pm 11.6 NW 35 53 989.2 - 2.6 Recent precip. Cloudy 5 - - - -
29/02:52pm 11.2 NNW 35 53 988.7 - 2.6 - Partly cloudy 3 - - - -
29/02:30pm 11.2 NW 31 42 989.2 - 1.8 - Partly cloudy 4 - - - -
29/02:21pm 11.6 NW 30 42 989.3 - 1.6 - Partly cloudy 5 - - - -
29/02:20pm 11.7 NW 30 38 989.4 - 1.6 - Partly cloudy 5 - - - -
29/02:00pm 12.0 NW 30 44 989.8 - 1.6 - Partly cloudy - - - - -
29/01:30pm 11.9 NW 30 43 990.6 - 1.6 - Partly cloudy 7 - - - -
29/01:00pm 11.5 NW 31 44 991.3 - 1.6 - Partly cloudy 6 - - - -
29/12:30pm 11.4 NW 27 39 992.0 - 1.6 - Partly cloudy 7 - - - -
29/12:00pm 11.5 NW 27 45 992.5 - 1.6 - Cloudy 7 - - - -

Other Formats:

Comma delimited format used in spreadsheet applications
http://www.bom.gov.au/fwo/IDT60701/IDT60701.94956.axf

JavaScript Object Notation format (JSON) in row-major order
http://www.bom.gov.au/fwo/IDT60701/IDT60701.94956.json